Time;durP1;ratioP1;P1;durP2;ratioP2;P2;SDS_P1;SDS_P2;PMS_P1;PMS_P2;Temp;Humidity;BMP_temperature;BMP_pressure;BME280_temperature;BME280_humidity;BME280_pressure;Samples;Min_cycle;Max_cycle;Signal;HPM_P1;HPM_P2
2024/01/13 00:02:18;;;;;;;41.93;23.07;;;;;;;-3.08;100.00;99244.53;5114896;28;20460;-75
2024/01/13 00:04:44;;;;;;;39.53;23.03;;;;;;;-3.14;100.00;99238.91;5114865;28;20790;-75
2024/01/13 00:07:11;;;;;;;39.03;22.60;;;;;;;-3.19;100.00;99230.59;5115155;28;20458;-75
2024/01/13 00:09:37;;;;;;;39.43;22.10;;;;;;;-3.26;100.00;99230.19;5115399;28;20447;-75
2024/01/13 00:12:04;;;;;;;41.27;22.67;;;;;;;-3.19;100.00;99226.25;5114955;28;20471;-75
2024/01/13 00:14:30;;;;;;;39.63;22.87;;;;;;;-3.06;100.00;99227.06;5114608;28;20438;-75
2024/01/13 00:16:57;;;;;;;39.57;22.93;;;;;;;-3.11;100.00;99218.72;5114949;28;20431;-75
2024/01/13 00:19:25;;;;;;;41.33;22.63;;;;;;;-3.08;100.00;99218.53;5114545;28;20970;-75
2024/01/13 00:21:54;;;;;;;36.60;22.00;;;;;;;-3.03;100.00;99220.81;5114823;28;20443;-75
2024/01/13 00:24:21;;;;;;;35.30;22.20;;;;;;;-3.09;100.00;99216.03;5114744;28;20523;-75
2024/01/13 00:26:48;;;;;;;37.27;20.63;;;;;;;-3.02;100.00;99215.50;5114485;28;20438;-75
2024/01/13 00:29:19;;;;;;;37.63;21.83;;;;;;;-3.12;100.00;99214.47;5114622;28;20462;-75
2024/01/13 00:31:52;;;;;;;36.50;21.53;;;;;;;-3.02;100.00;99212.06;5114509;28;20884;-75
2024/01/13 00:34:19;;;;;;;37.43;21.33;;;;;;;-3.00;100.00;99216.22;5114299;28;20416;-75
2024/01/13 00:36:52;;;;;;;41.23;23.60;;;;;;;-3.00;100.00;99203.22;5114293;28;20428;-75
2024/01/13 00:39:27;;;;;;;40.33;22.50;;;;;;;-2.97;100.00;99203.03;5114462;28;20456;-75
2024/01/13 00:41:56;;;;;;;39.63;22.17;;;;;;;-3.06;100.00;99203.66;5114057;28;20782;-75
2024/01/13 00:44:25;;;;;;;35.57;20.67;;;;;;;-3.10;100.00;99194.41;5114157;28;20472;-75
2024/01/13 00:46:53;;;;;;;31.80;20.33;;;;;;;-3.11;100.00;99181.50;5114784;28;20519;-75
2024/01/13 00:49:20;;;;;;;35.33;21.47;;;;;;;-3.10;100.00;99188.34;5114344;28;20451;-75
2024/01/13 00:51:48;;;;;;;39.97;22.63;;;;;;;-3.04;100.00;99193.97;5113997;28;20441;-75
2024/01/13 00:54:14;;;;;;;37.93;21.97;;;;;;;-3.00;100.00;99185.00;5114006;28;20453;-75
2024/01/13 00:56:40;;;;;;;37.47;21.30;;;;;;;-2.97;100.00;99190.00;5114224;28;20435;-75
2024/01/13 00:59:07;;;;;;;35.23;22.10;;;;;;;-3.10;100.00;99184.00;5113919;28;20443;-75
2024/01/13 01:01:33;;;;;;;37.00;22.83;;;;;;;-3.03;100.00;99190.41;5113874;28;20431;-75
2024/01/13 01:04:00;;;;;;;40.87;24.03;;;;;;;-2.99;100.00;99185.84;5114932;28;20439;-75
2024/01/13 01:06:26;;;;;;;39.50;22.87;;;;;;;-3.03;100.00;99174.81;5114226;28;20427;-75
2024/01/13 01:08:52;;;;;;;37.93;23.50;;;;;;;-3.14;100.00;99182.53;5114381;28;20432;-75
2024/01/13 01:11:19;;;;;;;39.43;23.27;;;;;;;-2.98;100.00;99177.91;5114058;28;20436;-75
2024/01/13 01:13:45;;;;;;;41.30;24.07;;;;;;;-2.95;100.00;99179.47;5114037;28;20478;-75
2024/01/13 01:16:13;;;;;;;40.63;24.17;;;;;;;-2.96;100.00;99176.06;5114137;28;20502;-75
2024/01/13 01:18:39;;;;;;;37.80;22.97;;;;;;;-2.93;100.00;99175.81;5113760;28;20910;-75
2024/01/13 01:21:05;;;;;;;36.93;23.23;;;;;;;-2.83;100.00;99179.47;5113939;28;20451;-75
2024/01/13 01:23:32;;;;;;;37.27;23.07;;;;;;;-3.02;100.00;99181.66;5113644;28;20443;-75
2024/01/13 01:25:58;;;;;;;37.33;21.77;;;;;;;-3.01;100.00;99178.16;5117562;28;20199;-75
2024/01/13 01:28:25;;;;;;;37.57;23.30;;;;;;;-2.98;100.00;99180.53;5118229;28;20431;-75
2024/01/13 01:30:52;;;;;;;38.97;23.20;;;;;;;-2.96;100.00;99175.22;5117855;28;21005;-75
2024/01/13 01:33:18;;;;;;;36.97;21.57;;;;;;;-2.93;100.00;99181.03;5117774;28;20474;-75
2024/01/13 01:35:44;;;;;;;43.37;23.10;;;;;;;-3.01;100.00;99175.56;5118044;28;20434;-75
2024/01/13 01:38:11;;;;;;;37.13;21.13;;;;;;;-3.11;100.00;99161.50;5117701;28;20798;-75
2024/01/13 01:40:38;;;;;;;37.43;21.37;;;;;;;-3.06;100.00;99164.66;5117631;28;20966;-75
2024/01/13 01:43:05;;;;;;;33.70;21.47;;;;;;;-2.99;100.00;99159.84;5118024;28;20454;-75
2024/01/13 01:45:34;;;;;;;34.90;20.43;;;;;;;-3.09;100.00;99154.44;5117910;28;20433;-75
2024/01/13 01:48:10;;;;;;;35.90;19.87;;;;;;;-3.05;100.00;99162.84;5117777;28;20817;-75
2024/01/13 01:50:38;;;;;;;36.47;20.40;;;;;;;-3.08;100.00;99150.91;5117611;28;20465;-75
2024/01/13 01:53:04;;;;;;;35.33;20.20;;;;;;;-3.06;100.00;99154.25;5117374;28;20471;-75
2024/01/13 01:55:31;;;;;;;30.97;19.03;;;;;;;-2.97;100.00;99150.16;5117809;28;20437;-75
2024/01/13 01:58:01;;;;;;;31.33;18.90;;;;;;;-3.10;100.00;99147.59;5117452;28;20922;-75
2024/01/13 02:00:28;;;;;;;33.20;19.60;;;;;;;-3.08;100.00;99152.69;5116172;28;20461;-75
2024/01/13 02:03:02;;;;;;;30.70;19.27;;;;;;;-3.17;100.00;99145.53;5117603;28;20991;-75
2024/01/13 02:05:31;;;;;;;33.20;19.57;;;;;;;-3.08;100.00;99140.50;5115862;28;20416;-75
2024/01/13 02:08:04;;;;;;;33.67;19.57;;;;;;;-3.13;100.00;99137.38;5117647;28;20440;-75
2024/01/13 02:10:40;;;;;;;35.80;20.87;;;;;;;-3.10;100.00;99142.38;5116834;28;20803;-75
2024/01/13 02:13:07;;;;;;;31.93;19.27;;;;;;;-3.03;100.00;99137.59;5116873;28;20462;-75
2024/01/13 02:15:38;;;;;;;31.83;19.53;;;;;;;-3.12;100.00;99133.03;5117008;28;20427;-75
2024/01/13 02:18:09;;;;;;;32.57;18.90;;;;;;;-3.08;100.00;99131.88;5116866;28;20451;-75
2024/01/13 02:20:41;;;;;;;31.77;18.57;;;;;;;-3.02;100.00;99126.22;5116772;28;20464;-75
2024/01/13 02:23:12;;;;;;;29.37;17.83;;;;;;;-3.13;100.00;99128.75;5116355;28;20447;-75
2024/01/13 02:25:43;;;;;;;30.23;18.30;;;;;;;-3.32;100.00;99129.22;5116818;28;20888;-75
2024/01/13 02:28:14;;;;;;;29.40;17.03;;;;;;;-3.25;100.00;99120.03;5116921;28;20419;-75
2024/01/13 02:30:40;;;;;;;28.43;17.30;;;;;;;-3.19;100.00;99122.22;5116643;28;20455;-75
2024/01/13 02:33:08;;;;;;;26.00;16.20;;;;;;;-3.23;100.00;99125.97;5116516;28;20989;-75
2024/01/13 02:35:39;;;;;;;26.10;15.97;;;;;;;-3.19;100.00;99116.19;5116395;28;20779;-75
2024/01/13 02:38:06;;;;;;;29.60;17.57;;;;;;;-3.09;100.00;99120.63;5116067;28;20879;-75
2024/01/13 02:40:36;;;;;;;26.30;16.00;;;;;;;-3.09;100.00;99115.44;5116473;28;20455;-75
2024/01/13 02:43:04;;;;;;;27.50;16.93;;;;;;;-3.18;100.00;99110.88;5116669;28;20432;-75
2024/01/13 02:45:40;;;;;;;28.27;16.80;;;;;;;-3.27;100.00;99113.28;5116709;28;20481;-75
2024/01/13 02:48:18;;;;;;;22.43;14.90;;;;;;;-3.26;100.00;99113.19;5116274;28;20419;-75
2024/01/13 02:51:02;;;;;;;23.90;15.07;;;;;;;-3.13;100.00;99116.59;5116593;28;20455;-75
2024/01/13 02:53:36;;;;;;;24.10;14.70;;;;;;;-3.21;100.00;99108.47;5115961;28;20462;-75
2024/01/13 02:56:04;;;;;;;20.77;14.23;;;;;;;-3.10;100.00;99103.38;5116086;28;20428;-75
2024/01/13 02:58:32;;;;;;;24.67;14.77;;;;;;;-3.06;100.00;99094.41;5116007;28;20800;-75
2024/01/13 03:01:06;;;;;;;24.30;15.03;;;;;;;-3.18;100.00;99095.28;5115879;28;20452;-75
2024/01/13 03:03:36;;;;;;;26.97;16.33;;;;;;;-3.12;100.00;99079.22;5116002;28;20775;-75
2024/01/13 03:06:04;;;;;;;23.33;16.30;;;;;;;-3.16;100.00;99080.38;5116060;28;20431;-75
2024/01/13 03:08:31;;;;;;;24.10;14.40;;;;;;;-3.05;100.00;99082.22;5116411;28;20811;-75
2024/01/13 03:10:57;;;;;;;28.00;16.33;;;;;;;-3.29;100.00;99084.78;5116206;28;20806;-75
2024/01/13 03:13:23;;;;;;;27.13;15.67;;;;;;;-3.17;100.00;99083.13;5116032;28;20471;-75
2024/01/13 03:15:50;;;;;;;27.87;16.00;;;;;;;-3.37;100.00;99083.66;5116099;28;20434;-75
2024/01/13 03:18:16;;;;;;;24.07;14.97;;;;;;;-3.48;100.00;99074.03;5117259;28;20427;-75
2024/01/13 03:20:42;;;;;;;25.30;14.73;;;;;;;-3.28;100.00;99076.06;5115983;28;20492;-75
2024/01/13 03:23:09;;;;;;;26.90;15.67;;;;;;;-3.26;100.00;99071.56;5115890;28;20432;-75
2024/01/13 03:25:35;;;;;;;27.47;15.80;;;;;;;-3.23;100.00;99071.38;5115737;28;20923;-75
2024/01/13 03:28:02;;;;;;;26.53;15.67;;;;;;;-3.21;100.00;99066.06;5115611;28;20431;-75
2024/01/13 03:30:28;;;;;;;27.80;16.07;;;;;;;-3.14;100.00;99065.50;5115506;28;20462;-75
2024/01/13 03:32:54;;;;;;;25.60;15.07;;;;;;;-3.14;100.00;99062.06;5116015;28;20467;-75
2024/01/13 03:35:21;;;;;;;28.23;16.13;;;;;;;-3.08;100.00;99065.06;5115736;28;20435;-75
2024/01/13 03:37:47;;;;;;;29.00;17.27;;;;;;;-3.23;100.00;99071.38;5115398;28;20442;-75
2024/01/13 03:40:13;;;;;;;27.73;15.70;;;;;;;-3.23;100.00;99071.38;5115611;28;20459;-75
2024/01/13 03:42:40;;;;;;;27.07;16.33;;;;;;;-3.15;100.00;99078.63;5115573;28;20435;-75
2024/01/13 03:45:06;;;;;;;27.20;16.37;;;;;;;-3.14;100.00;99080.28;5115542;28;20435;-75
2024/01/13 03:47:33;;;;;;;27.90;15.83;;;;;;;-3.19;100.00;99075.41;5115003;28;20440;-75
2024/01/13 03:49:59;;;;;;;26.70;16.50;;;;;;;-3.20;100.00;99067.72;5115260;28;20455;-75
2024/01/13 03:52:25;;;;;;;27.60;16.97;;;;;;;-3.27;100.00;99063.88;5115318;28;20427;-75
2024/01/13 03:54:52;;;;;;;26.07;16.83;;;;;;;-3.27;100.00;99061.28;5115382;28;20434;-75
2024/01/13 03:57:18;;;;;;;30.23;17.50;;;;;;;-3.33;100.00;99057.38;5115148;28;20440;-75
2024/01/13 03:59:45;;;;;;;27.30;16.67;;;;;;;-3.36;100.00;99069.72;5114869;28;20470;-75
2024/01/13 04:02:12;;;;;;;29.47;17.43;;;;;;;-3.53;100.00;99060.53;5115180;28;20442;-75
2024/01/13 04:04:39;;;;;;;26.23;16.03;;;;;;;-3.41;100.00;99053.63;5115029;28;20937;-75
2024/01/13 04:07:05;;;;;;;33.23;18.20;;;;;;;-3.35;100.00;99043.63;5114911;28;20431;-75
2024/01/13 04:09:32;;;;;;;30.27;17.27;;;;;;;-3.35;100.00;99035.84;5114724;28;20452;-75
2024/01/13 04:11:58;;;;;;;28.10;17.30;;;;;;;-3.25;100.00;99039.44;5114858;28;20427;-75
2024/01/13 04:14:24;;;;;;;32.43;17.73;;;;;;;-3.25;100.00;99025.63;5114539;28;20562;-75
2024/01/13 04:16:51;;;;;;;31.70;17.63;;;;;;;-3.28;100.00;99021.47;5114583;28;20798;-75
2024/01/13 04:19:17;;;;;;;27.73;16.90;;;;;;;-3.25;100.00;99017.81;5114712;28;20460;-75
2024/01/13 04:21:43;;;;;;;30.57;17.90;;;;;;;-3.16;100.00;99014.56;5114588;28;20450;-75
2024/01/13 04:24:10;;;;;;;29.83;16.90;;;;;;;-3.19;100.00;99022.56;5114718;28;20420;-75
2024/01/13 04:26:36;;;;;;;32.27;18.57;;;;;;;-3.21;100.00;99020.06;5114580;28;20431;-75
2024/01/13 04:29:03;;;;;;;27.60;16.77;;;;;;;-3.02;100.00;99017.00;5114524;28;20438;-75
2024/01/13 04:31:29;;;;;;;29.27;16.93;;;;;;;-3.01;100.00;99013.44;5114524;28;20436;-75
2024/01/13 04:33:55;;;;;;;29.97;17.10;;;;;;;-2.81;100.00;99011.03;5114380;28;20475;-75
2024/01/13 04:36:22;;;;;;;29.33;17.70;;;;;;;-2.83;100.00;99018.13;5114665;28;20435;-75
2024/01/13 04:38:49;;;;;;;29.57;16.23;;;;;;;-3.45;100.00;99021.00;5114068;28;20936;-75
2024/01/13 04:41:16;;;;;;;29.27;17.27;;;;;;;-3.38;100.00;99006.63;5114261;28;20490;-75
2024/01/13 04:43:43;;;;;;;24.83;15.73;;;;;;;-3.28;100.00;99005.88;5114339;28;20428;-75
2024/01/13 04:46:10;;;;;;;30.13;17.20;;;;;;;-3.27;100.00;99009.28;5114344;28;20431;-75
2024/01/13 04:48:39;;;;;;;29.67;17.30;;;;;;;-3.17;100.00;99005.91;5114382;28;20439;-75
2024/01/13 04:51:06;;;;;;;30.77;18.07;;;;;;;-3.07;100.00;99006.91;5114083;28;20554;-75
2024/01/13 04:53:32;;;;;;;28.30;17.43;;;;;;;-3.08;100.00;99002.66;5114151;28;20482;-75
2024/01/13 04:55:59;;;;;;;30.10;17.23;;;;;;;-3.15;100.00;99008.41;5114091;28;20922;-75
2024/01/13 04:58:25;;;;;;;31.73;19.13;;;;;;;-3.16;100.00;99007.56;5114324;28;20441;-75
2024/01/13 05:00:51;;;;;;;31.87;18.77;;;;;;;-3.14;100.00;98994.47;5113941;28;20451;-75
2024/01/13 05:03:18;;;;;;;30.93;17.10;;;;;;;-3.03;100.00;98997.94;5114162;28;20432;-75
2024/01/13 05:05:44;;;;;;;33.50;17.63;;;;;;;-3.09;100.00;98992.34;5114878;28;20431;-75
2024/01/13 05:08:10;;;;;;;32.00;17.83;;;;;;;-3.12;100.00;98998.59;5114015;28;20431;-75
2024/01/13 05:10:37;;;;;;;28.20;17.43;;;;;;;-3.08;100.00;98994.03;5113943;28;20451;-75
2024/01/13 05:13:03;;;;;;;29.63;18.47;;;;;;;-3.17;100.00;98994.69;5113816;28;20648;-75
2024/01/13 05:15:29;;;;;;;32.60;18.70;;;;;;;-3.09;100.00;98998.41;5113600;28;20914;-73
2024/01/13 05:17:56;;;;;;;33.00;19.23;;;;;;;-3.10;100.00;98995.91;5113510;28;20927;-73
2024/01/13 05:20:23;;;;;;;32.50;19.27;;;;;;;-3.00;100.00;98997.72;5113783;28;20447;-75
2024/01/13 05:22:49;;;;;;;36.60;19.97;;;;;;;-3.02;100.00;98991.78;5113471;28;20930;-75
2024/01/13 05:25:15;;;;;;;32.27;19.23;;;;;;;-3.01;100.00;98997.84;5113609;28;20451;-75
2024/01/13 05:27:42;;;;;;;34.03;19.80;;;;;;;-3.04;100.00;99000.66;5114163;28;20428;-75
2024/01/13 05:30:09;;;;;;;32.37;18.20;;;;;;;-3.04;100.00;99004.09;5113761;28;20451;-75
2024/01/13 05:32:36;;;;;;;33.27;19.20;;;;;;;-3.01;100.00;99005.63;5113983;28;20454;-75
2024/01/13 05:35:03;;;;;;;30.23;18.10;;;;;;;-3.16;100.00;98996.34;5113880;28;20480;-75
2024/01/13 05:37:30;;;;;;;33.00;19.10;;;;;;;-3.07;100.00;98999.09;5113809;28;20434;-75
2024/01/13 05:39:58;;;;;;;31.73;18.00;;;;;;;-3.02;100.00;98998.78;5113780;28;20501;-75
2024/01/13 05:42:25;;;;;;;33.10;18.37;;;;;;;-2.94;100.00;98992.06;5113208;28;20443;-75
2024/01/13 05:44:51;;;;;;;31.37;18.67;;;;;;;-3.02;100.00;98993.56;5113553;28;20431;-75
2024/01/13 05:47:17;;;;;;;37.20;19.93;;;;;;;-3.25;100.00;98997.81;5113554;28;20439;-75
2024/01/13 05:49:44;;;;;;;35.43;18.90;;;;;;;-3.16;100.00;98996.34;5113418;28;20454;-75
2024/01/13 05:52:10;;;;;;;35.90;19.43;;;;;;;-3.17;100.00;98998.13;5113404;28;20453;-75
2024/01/13 05:54:40;;;;;;;36.13;20.20;;;;;;;-3.08;100.00;98989.63;5113157;28;20473;-75
2024/01/13 05:57:06;;;;;;;35.00;20.37;;;;;;;-3.10;100.00;98990.69;5113679;28;20427;-75
2024/01/13 05:59:33;;;;;;;37.97;20.67;;;;;;;-3.05;100.00;98994.63;5113473;28;20451;-75
2024/01/13 06:01:59;;;;;;;37.37;20.60;;;;;;;-2.91;100.00;98991.84;5113385;28;20435;-75
2024/01/13 06:04:25;;;;;;;32.30;19.53;;;;;;;-3.06;100.00;98987.78;5113358;28;20438;-75
2024/01/13 06:06:52;;;;;;;39.90;20.27;;;;;;;-3.03;100.00;98990.13;5113451;28;20427;-75
2024/01/13 06:09:18;;;;;;;38.00;19.57;;;;;;;-3.13;100.00;98991.75;5113295;28;20455;-75
2024/01/13 06:11:44;;;;;;;34.57;18.20;;;;;;;-3.01;100.00;98983.06;5114845;28;20431;-75
2024/01/13 06:14:11;;;;;;;35.10;19.83;;;;;;;-3.16;100.00;98989.38;5117098;27;20463;-75
2024/01/13 06:16:37;;;;;;;34.07;18.60;;;;;;;-3.17;100.00;98990.31;5117162;28;20427;-75
2024/01/13 06:19:05;;;;;;;32.87;17.00;;;;;;;-3.38;100.00;98991.88;5116775;28;20998;-75
2024/01/13 06:21:30;;;;;;;30.83;17.97;;;;;;;-3.32;100.00;98991.44;5116658;28;20495;-75
2024/01/13 06:23:58;;;;;;;39.87;20.30;;;;;;;-3.36;100.00;98984.78;5116874;28;20435;-75
2024/01/13 06:26:26;;;;;;;35.47;20.50;;;;;;;-3.30;100.00;98978.31;5116861;28;20586;-75
2024/01/13 06:28:52;;;;;;;38.80;20.70;;;;;;;-3.29;100.00;98978.19;5117053;27;20453;-75
2024/01/13 06:31:19;;;;;;;41.03;21.03;;;;;;;-3.23;100.00;98975.16;5116632;28;20926;-75
2024/01/13 06:33:45;;;;;;;40.47;21.37;;;;;;;-3.24;100.00;98970.91;5116763;28;20475;-75
2024/01/13 06:36:11;;;;;;;37.83;20.70;;;;;;;-3.19;100.00;98981.81;5116390;28;20922;-75
2024/01/13 06:38:38;;;;;;;38.53;21.63;;;;;;;-3.17;100.00;98968.69;5116261;28;20945;-75
2024/01/13 06:41:04;;;;;;;40.93;21.43;;;;;;;-3.21;100.00;98975.88;5116197;28;20459;-75
2024/01/13 06:43:30;;;;;;;42.73;21.73;;;;;;;-3.17;100.00;98979.09;5116563;28;20937;-75
2024/01/13 06:45:57;;;;;;;38.67;21.63;;;;;;;-3.13;100.00;98976.16;5116216;28;20435;-75
2024/01/13 06:48:23;;;;;;;41.07;22.97;;;;;;;-3.03;100.00;98982.31;5116284;28;20439;-75
2024/01/13 06:50:49;;;;;;;41.27;21.67;;;;;;;-3.00;100.00;98983.88;5116606;28;20458;-75
2024/01/13 06:53:16;;;;;;;38.40;20.67;;;;;;;-3.17;100.00;98973.91;5116157;28;20428;-75
2024/01/13 06:55:42;;;;;;;38.40;20.13;;;;;;;-3.19;100.00;98968.81;5115995;28;20435;-75
2024/01/13 06:58:08;;;;;;;39.67;21.67;;;;;;;-3.14;100.00;98969.28;5116439;28;20427;-75
2024/01/13 07:00:37;;;;;;;43.00;23.57;;;;;;;-3.15;100.00;98961.59;5116241;28;20462;-75
2024/01/13 07:03:03;;;;;;;43.97;21.63;;;;;;;-3.14;100.00;98958.88;5115886;28;20927;-75
2024/01/13 07:05:30;;;;;;;46.10;23.57;;;;;;;-3.09;100.00;98959.38;5115849;28;20430;-75
2024/01/13 07:07:59;;;;;;;41.43;24.27;;;;;;;-3.04;100.00;98956.44;5116094;28;20442;-75
2024/01/13 07:10:26;;;;;;;39.97;22.80;;;;;;;-2.96;100.00;98964.50;5115885;28;20542;-75
2024/01/13 07:12:52;;;;;;;39.90;22.83;;;;;;;-2.98;100.00;98974.22;5116123;28;20435;-75
2024/01/13 07:15:19;;;;;;;46.17;24.60;;;;;;;-2.99;100.00;98970.75;5116092;28;20502;-75
2024/01/13 07:17:45;;;;;;;42.17;23.87;;;;;;;-2.92;100.00;98964.19;5115950;28;20442;-75
2024/01/13 07:20:12;;;;;;;44.17;24.43;;;;;;;-2.98;100.00;98943.81;5116083;28;20456;-75
2024/01/13 07:22:39;;;;;;;44.13;24.67;;;;;;;-2.94;100.00;98954.84;5115508;28;20443;-75
2024/01/13 07:25:06;;;;;;;44.07;23.17;;;;;;;-2.90;100.00;98957.09;5115917;28;20435;-75
2024/01/13 07:27:32;;;;;;;48.27;25.33;;;;;;;-2.89;100.00;98950.13;5115786;28;20440;-75
2024/01/13 07:30:04;;;;;;;41.70;23.73;;;;;;;-2.91;100.00;98944.19;5115770;28;20548;-75
2024/01/13 07:32:30;;;;;;;39.77;22.03;;;;;;;-2.88;100.00;98938.75;5115487;27;20440;-75
2024/01/13 07:34:57;;;;;;;44.40;23.03;;;;;;;-2.90;100.00;98932.81;5115543;28;20567;-75
2024/01/13 07:37:23;;;;;;;44.97;24.47;;;;;;;-2.84;100.00;98935.00;5115621;28;20454;-75
2024/01/13 07:39:51;;;;;;;40.10;23.67;;;;;;;-2.90;100.00;98931.06;5115518;28;20457;-75
2024/01/13 07:42:17;;;;;;;40.67;24.23;;;;;;;-2.86;100.00;98931.66;5115444;28;20919;-75
2024/01/13 07:44:44;;;;;;;42.50;22.47;;;;;;;-2.81;100.00;98938.19;5115197;28;20443;-75
2024/01/13 07:47:11;;;;;;;42.53;23.43;;;;;;;-2.89;100.00;98943.13;5115078;28;20946;-75
2024/01/13 07:49:37;;;;;;;43.67;23.73;;;;;;;-2.84;100.00;98935.78;5115537;27;20477;-75
2024/01/13 07:52:04;;;;;;;42.97;25.17;;;;;;;-2.79;100.00;98932.88;5115094;28;20431;-75
2024/01/13 07:54:30;;;;;;;41.37;23.30;;;;;;;-2.67;100.00;98944.97;5115253;28;20482;-75
2024/01/13 07:56:56;;;;;;;39.87;23.43;;;;;;;-2.88;100.00;98951.75;5114890;28;20435;-75
2024/01/13 07:59:23;;;;;;;33.40;19.37;;;;;;;-2.93;100.00;98959.91;5115237;28;20454;-75
2024/01/13 08:01:50;;;;;;;30.10;15.83;;;;;;;-2.86;100.00;98950.72;5114915;28;20444;-75
2024/01/13 08:04:16;;;;;;;31.00;16.70;;;;;;;-2.76;100.00;98938.66;5114835;28;20972;-75
2024/01/13 08:06:43;;;;;;;32.33;18.23;;;;;;;-2.79;100.00;98933.72;5114947;28;20435;-75
2024/01/13 08:09:09;;;;;;;34.07;18.67;;;;;;;-2.74;100.00;98938.56;5114738;28;20438;-75
2024/01/13 08:11:36;;;;;;;29.67;17.60;;;;;;;-2.64;100.00;98948.16;5115077;28;20519;-75
2024/01/13 08:14:02;;;;;;;28.93;16.27;;;;;;;-2.61;100.00;98942.75;5114695;28;20472;-75
2024/01/13 08:16:29;;;;;;;29.50;16.57;;;;;;;-2.70;100.00;98947.78;5114646;28;20441;-75
2024/01/13 08:18:55;;;;;;;29.47;16.20;;;;;;;-2.63;100.00;98949.81;5114582;28;20432;-75
2024/01/13 08:21:22;;;;;;;29.53;16.60;;;;;;;-2.59;100.00;98945.19;5114436;28;20432;-75
2024/01/13 08:23:48;;;;;;;25.90;15.77;;;;;;;-2.53;100.00;98952.56;5114554;28;20423;-75
2024/01/13 08:26:14;;;;;;;28.03;15.83;;;;;;;-2.66;100.00;98944.84;5114469;28;20431;-75
2024/01/13 08:28:41;;;;;;;27.10;15.23;;;;;;;-2.59;100.00;98946.03;5114384;28;20427;-75
2024/01/13 08:31:08;;;;;;;28.17;16.57;;;;;;;-2.56;100.00;98951.03;5114512;28;20457;-75
2024/01/13 08:33:34;;;;;;;29.10;15.97;;;;;;;-2.57;100.00;98938.94;5113977;28;20455;-75
2024/01/13 08:36:01;;;;;;;25.53;14.10;;;;;;;-2.58;100.00;98939.06;5113991;28;20431;-75
2024/01/13 08:38:28;;;;;;;24.03;12.93;;;;;;;-2.58;100.00;98945.09;5114312;28;20439;-75
2024/01/13 08:40:55;;;;;;;30.63;17.13;;;;;;;-2.53;100.00;98950.78;5113949;28;20470;-75
2024/01/13 08:43:21;;;;;;;33.97;18.67;;;;;;;-2.61;100.00;98947.94;5114127;28;20431;-75
2024/01/13 08:45:48;;;;;;;37.13;19.97;;;;;;;-2.61;100.00;98947.94;5113741;28;20440;-75
2024/01/13 08:48:14;;;;;;;35.10;18.93;;;;;;;-2.55;100.00;98946.63;5113914;28;20793;-75
2024/01/13 08:50:41;;;;;;;27.73;16.43;;;;;;;-2.52;100.00;98947.22;5113587;27;20467;-75
2024/01/13 08:53:07;;;;;;;28.87;17.10;;;;;;;-2.58;100.00;98941.69;5114125;28;20463;-75
2024/01/13 08:55:33;;;;;;;32.30;17.23;;;;;;;-2.63;100.00;98951.56;5113800;28;20840;-75
2024/01/13 08:58:00;;;;;;;27.27;16.00;;;;;;;-2.46;100.00;98957.19;5113856;28;20435;-75
2024/01/13 09:00:27;;;;;;;26.63;15.90;;;;;;;-2.42;100.00;98953.41;5114262;28;20457;-75
2024/01/13 09:02:54;;;;;;;30.10;16.73;;;;;;;-2.38;100.00;98949.63;5113978;28;20468;-73
2024/01/13 09:05:20;;;;;;;27.70;15.23;;;;;;;-2.31;100.00;98950.81;5114821;28;20454;-74
2024/01/13 09:07:48;;;;;;;25.37;13.10;;;;;;;-2.21;100.00;98949.16;5113692;28;20437;-75
2024/01/13 09:10:14;;;;;;;19.77;11.50;;;;;;;-2.37;100.00;98950.44;5113339;28;20459;-75
2024/01/13 09:12:41;;;;;;;12.70;8.27;;;;;;;-2.37;100.00;98951.28;5113464;28;20505;-75
2024/01/13 09:15:09;;;;;;;13.53;8.63;;;;;;;-2.43;100.00;98967.34;5113128;28;20473;-75
2024/01/13 09:17:36;;;;;;;13.03;7.50;;;;;;;-1.95;100.00;98968.81;5113377;28;20945;-75
2024/01/13 09:20:03;;;;;;;13.40;8.43;;;;;;;-1.94;100.00;98954.84;5113654;28;20455;-75
2024/01/13 09:22:29;;;;;;;14.93;9.53;;;;;;;-2.17;100.00;98952.38;5113488;28;20478;-75
2024/01/13 09:24:55;;;;;;;13.77;9.23;;;;;;;-2.33;100.00;98952.72;5113399;28;20434;-75
2024/01/13 09:27:22;;;;;;;15.77;8.20;;;;;;;-2.13;100.00;98957.22;5113397;28;20431;-75
2024/01/13 09:29:48;;;;;;;11.70;7.63;;;;;;;-2.24;100.00;98952.00;5113570;28;20816;-75
2024/01/13 09:32:15;;;;;;;9.40;6.27;;;;;;;-2.34;100.00;98961.44;5113630;28;20431;-75
2024/01/13 09:34:41;;;;;;;10.27;6.87;;;;;;;-2.20;100.00;98969.06;5113459;28;20517;-75
2024/01/13 09:37:07;;;;;;;10.60;7.47;;;;;;;-2.09;100.00;98969.06;5113476;28;20439;-75
2024/01/13 09:39:34;;;;;;;9.20;6.50;;;;;;;-2.02;100.00;98969.41;5113223;28;20463;-75
2024/01/13 09:42:02;;;;;;;9.03;5.97;;;;;;;-1.86;100.00;98957.69;5113605;28;20482;-75
2024/01/13 09:44:30;;;;;;;11.17;6.90;;;;;;;-2.27;100.00;98951.38;5113182;28;20440;-75
2024/01/13 09:46:58;;;;;;;13.00;7.10;;;;;;;-2.27;100.00;98952.22;5115313;28;20461;-75
2024/01/13 09:49:30;;;;;;;8.27;6.10;;;;;;;-2.18;100.00;98946.31;5117832;28;20447;-75
2024/01/13 09:51:58;;;;;;;9.33;5.87;;;;;;;-2.42;100.00;98939.56;5117565;28;20424;-75
2024/01/13 09:54:29;;;;;;;8.37;5.77;;;;;;;-2.27;100.00;98947.03;5117514;28;20471;-75
2024/01/13 09:56:57;;;;;;;8.67;6.37;;;;;;;-2.26;100.00;98935.66;5117454;28;20427;-75
2024/01/13 09:59:25;;;;;;;9.90;6.53;;;;;;;-2.34;100.00;98940.63;5117111;28;20457;-75
2024/01/13 10:01:55;;;;;;;9.60;6.13;;;;;;;-2.00;100.00;98944.06;5117181;28;20953;-73
2024/01/13 10:04:22;;;;;;;9.00;6.47;;;;;;;-2.22;100.00;98931.88;5117174;28;20424;-75
2024/01/13 10:06:49;;;;;;;11.07;6.97;;;;;;;-2.15;100.00;98938.28;5117308;27;20431;-75
2024/01/13 10:09:16;;;;;;;8.57;5.93;;;;;;;-2.12;100.00;98925.00;5117620;28;20455;-75
2024/01/13 10:11:43;;;;;;;9.93;7.00;;;;;;;-2.17;100.00;98913.31;5117427;28;20434;-75
2024/01/13 10:14:13;;;;;;;9.90;6.80;;;;;;;-2.34;100.00;98913.75;5117032;28;20917;-75
2024/01/13 10:16:40;;;;;;;10.23;6.60;;;;;;;-2.23;100.00;98901.56;5117461;28;20431;-75
2024/01/13 10:19:09;;;;;;;8.93;6.53;;;;;;;-2.10;100.00;98898.84;5116413;28;20801;-75
2024/01/13 10:21:36;;;;;;;9.60;7.30;;;;;;;-2.10;100.00;98891.84;5116554;28;20443;-75
2024/01/13 10:24:03;;;;;;;13.07;8.37;;;;;;;-2.14;100.00;98892.19;5116999;28;20510;-75
2024/01/13 10:26:31;;;;;;;9.50;7.50;;;;;;;-2.08;100.00;98891.75;5116882;28;20431;-75
2024/01/13 10:28:58;;;;;;;11.33;7.63;;;;;;;-2.16;100.00;98897.53;5116659;27;20478;-73
2024/01/13 10:31:26;;;;;;;11.27;7.57;;;;;;;-2.10;100.00;98894.47;5116789;28;20449;-72
2024/01/13 10:33:53;;;;;;;10.77;7.37;;;;;;;-2.04;100.00;98909.59;5116382;28;20795;-75
2024/01/13 10:36:24;;;;;;;13.13;8.23;;;;;;;-2.10;100.00;98904.88;5116604;28;20489;-75
2024/01/13 10:38:52;;;;;;;9.87;7.33;;;;;;;-2.02;100.00;98904.28;5116527;28;20440;-75
2024/01/13 10:41:28;;;;;;;11.23;7.77;;;;;;;-2.03;100.00;98908.66;5116507;28;20431;-75
2024/01/13 10:43:56;;;;;;;11.83;8.03;;;;;;;-2.05;100.00;98900.13;5116281;28;20900;-75
2024/01/13 10:46:25;;;;;;;11.47;8.10;;;;;;;-1.90;100.00;98892.91;5116494;27;20430;-75
2024/01/13 10:48:59;;;;;;;11.77;7.80;;;;;;;-1.77;100.00;98883.97;5115796;27;20435;-74
2024/01/13 10:51:29;;;;;;;11.27;8.23;;;;;;;-2.00;100.00;98876.31;5115184;28;20451;-75
2024/01/13 10:54:00;;;;;;;12.33;8.27;;;;;;;-2.01;100.00;98859.88;5116150;28;20455;-75
2024/01/13 10:56:28;;;;;;;12.93;9.00;;;;;;;-1.93;100.00;98852.28;5115938;28;20467;-75
2024/01/13 10:58:56;;;;;;;12.93;8.00;;;;;;;-1.92;100.00;98840.91;5115311;28;20543;-75
2024/01/13 11:01:23;;;;;;;12.67;8.37;;;;;;;-1.95;100.00;98835.09;5116197;28;21029;-75
2024/01/13 11:03:53;;;;;;;11.03;7.87;;;;;;;-2.05;100.00;98842.00;5116496;28;20427;-75
2024/01/13 11:06:19;;;;;;;11.57;8.17;;;;;;;-1.93;100.00;98826.22;5116327;28;20431;-75
2024/01/13 11:08:46;;;;;;;12.60;8.47;;;;;;;-1.86;100.00;98839.56;5116144;28;20463;-75
2024/01/13 11:11:18;;;;;;;12.47;8.57;;;;;;;-1.90;100.00;98830.38;5115627;28;20826;-75
2024/01/13 11:13:50;;;;;;;12.83;7.87;;;;;;;-1.92;100.00;98834.84;5116118;28;20422;-75